Time;durP1;ratioP1;P1;durP2;ratioP2;P2;SDS_P1;SDS_P2;PMS_P1;PMS_P2;Temp;Humidity;BMP_temperature;BMP_pressure;BME280_temperature;BME280_humidity;BME280_pressure;Samples;Min_cycle;Max_cycle;Signal;HPM_P1;HPM_P2
2022/06/26 00:00:19;;;;;;;13.13;7.40;;;17.00;99.90;;;;;;5018579;28;20181;-88
2022/06/26 00:02:48;;;;;;;9.47;6.50;;;17.00;99.90;;;;;;5019974;28;20190;-84
2022/06/26 00:05:14;;;;;;;11.17;7.07;;;17.00;99.90;;;;;;5038277;28;20225;-84
2022/06/26 00:07:40;;;;;;;10.33;7.00;;;17.10;99.90;;;;;;5036906;28;20177;-86
2022/06/26 00:10:07;;;;;;;10.70;7.07;;;17.00;99.90;;;;;;5034675;28;20166;-83
2022/06/26 00:12:35;;;;;;;14.43;7.73;;;16.90;99.90;;;;;;5019960;28;20176;-85
2022/06/26 00:15:01;;;;;;;11.90;6.97;;;16.90;99.90;;;;;;5025496;28;20533;-84
2022/06/26 00:17:26;;;;;;;10.87;7.67;;;17.00;99.90;;;;;;5028773;28;20182;-84
2022/06/26 00:19:53;;;;;;;10.40;7.20;;;17.00;99.90;;;;;;5045863;28;20191;-84
2022/06/26 00:22:22;;;;;;;10.50;6.93;;;16.90;99.90;;;;;;5019449;28;20170;-84
2022/06/26 00:24:47;;;;;;;10.07;7.20;;;16.90;99.90;;;;;;5036217;28;20314;-82
2022/06/26 00:27:13;;;;;;;13.57;7.57;;;16.90;99.90;;;;;;5017008;28;20658;-84
2022/06/26 00:29:39;;;;;;;15.13;7.87;;;17.00;99.90;;;;;;5039178;28;20200;-85
2022/06/26 00:32:05;;;;;;;10.53;7.17;;;16.90;99.90;;;;;;5043495;28;20205;-85
2022/06/26 00:34:32;;;;;;;9.43;7.33;;;16.80;99.90;;;;;;5026057;28;20177;-85
2022/06/26 00:36:58;;;;;;;9.27;6.50;;;16.70;99.90;;;;;;5040824;28;20194;-84
2022/06/26 00:39:24;;;;;;;10.77;7.20;;;16.70;99.90;;;;;;5021575;28;20189;-85
2022/06/26 00:41:51;;;;;;;13.13;6.93;;;16.60;99.90;;;;;;5019688;28;20197;-85
2022/06/26 00:44:24;;;;;;;11.20;7.30;;;16.70;99.90;;;;;;5016193;28;20205;-85
2022/06/26 00:46:50;;;;;;;12.53;7.30;;;16.70;99.90;;;;;;5016091;28;20213;-89
2022/06/26 00:49:17;;;;;;;11.03;6.90;;;16.70;99.90;;;;;;5015861;28;20189;-86
2022/06/26 00:51:49;;;;;;;9.73;6.70;;;16.60;99.90;;;;;;5033624;28;20173;-86
2022/06/26 00:54:15;;;;;;;10.93;6.77;;;16.50;99.90;;;;;;5015618;28;20177;-85
2022/06/26 00:56:41;;;;;;;12.07;7.10;;;16.60;99.90;;;;;;5016089;28;20696;-83
2022/06/26 00:59:07;;;;;;;12.33;7.87;;;16.60;99.90;;;;;;5016012;28;20178;-83
2022/06/26 01:01:36;;;;;;;10.57;7.17;;;16.60;99.90;;;;;;5033708;28;20685;-84
2022/06/26 01:04:03;;;;;;;11.67;8.23;;;16.70;99.90;;;;;;5016054;28;20208;-85
2022/06/26 01:06:31;;;;;;;12.13;8.73;;;16.80;99.90;;;;;;5015674;28;20172;-85
2022/06/26 01:08:57;;;;;;;19.50;10.83;;;16.90;99.90;;;;;;5015598;28;20251;-85
2022/06/26 01:11:24;;;;;;;20.53;11.97;;;16.70;99.90;;;;;;5015718;28;20173;-84
2022/06/26 01:13:52;;;;;;;21.07;13.40;;;16.50;99.90;;;;;;5033725;28;20197;-85
2022/06/26 01:16:20;;;;;;;20.90;13.50;;;16.40;99.90;;;;;;5016467;28;20676;-86
2022/06/26 01:18:48;;;;;;;27.03;15.27;;;16.50;99.90;;;;;;5015700;28;20204;-85
2022/06/26 01:21:17;;;;;;;24.27;15.83;;;16.50;99.90;;;;;;5015834;28;20174;-86
2022/06/26 01:23:43;;;;;;;24.10;15.77;;;16.50;99.90;;;;;;5015307;28;20232;-86
2022/06/26 01:26:09;;;;;;;24.57;14.70;;;16.50;99.90;;;;;;5015416;28;20331;-85
2022/06/26 01:28:35;;;;;;;20.23;14.27;;;16.40;99.90;;;;;;5015299;28;20274;-84
2022/06/26 01:31:01;;;;;;;19.70;13.27;;;16.30;99.90;;;;;;5033588;28;20170;-85
2022/06/26 01:33:26;;;;;;;24.17;14.07;;;16.30;99.90;;;;;;5015355;28;20188;-86
2022/06/26 01:35:52;;;;;;;22.20;14.43;;;16.30;99.90;;;;;;5032948;28;20180;-84
2022/06/26 01:38:22;;;;;;;20.40;13.70;;;16.20;99.90;;;;;;5015813;28;20182;-84
2022/06/26 01:40:51;;;;;;;20.97;14.13;;;16.10;99.90;;;;;;5019102;28;20177;-85
2022/06/26 01:43:19;;;;;;;21.93;13.63;;;16.10;99.90;;;;;;5018979;28;20204;-84
2022/06/26 01:45:49;;;;;;;22.70;14.37;;;16.00;99.90;;;;;;5020526;28;20247;-86
2022/06/26 01:48:15;;;;;;;21.67;13.77;;;16.00;99.90;;;;;;5018879;28;20518;-84
2022/06/26 01:50:42;;;;;;;21.03;13.37;;;16.00;99.90;;;;;;5037056;28;20166;-85
2022/06/26 01:53:08;;;;;;;22.87;13.67;;;16.10;99.90;;;;;;5018809;28;20166;-85
2022/06/26 01:55:34;;;;;;;17.07;12.07;;;16.10;99.90;;;;;;5018746;28;20230;-85
2022/06/26 01:58:01;;;;;;;20.33;14.47;;;16.10;99.90;;;;;;5018519;28;20630;-85
2022/06/26 02:00:31;;;;;;;22.23;13.00;;;16.20;99.90;;;;;;5018843;28;20275;-84
2022/06/26 02:02:57;;;;;;;20.77;12.77;;;16.10;99.90;;;;;;5036499;28;20197;-85
2022/06/26 02:05:23;;;;;;;20.63;13.30;;;16.20;99.90;;;;;;5018618;28;20627;-85
2022/06/26 02:07:49;;;;;;;21.27;13.00;;;16.20;99.90;;;;;;5021332;28;20185;-84
2022/06/26 02:15:43;;;;;;;20.73;12.73;;;16.20;99.90;;;;;;5060467;28;20242;-81
2022/06/26 02:18:09;;;;;;;18.20;12.03;;;16.20;99.90;;;;;;5042915;28;20210;-84
2022/06/26 02:20:41;;;;;;;18.57;11.93;;;16.30;99.90;;;;;;5040605;28;20169;-84
2022/06/26 02:23:10;;;;;;;18.70;12.30;;;16.30;99.90;;;;;;5037924;28;20637;-86
2022/06/26 02:25:40;;;;;;;20.17;12.53;;;16.30;99.90;;;;;;5022119;28;20269;-82
2022/06/26 02:28:06;;;;;;;19.53;12.00;;;16.30;99.90;;;;;;5020638;28;20183;-84
2022/06/26 02:30:37;;;;;;;21.80;12.20;;;16.30;99.90;;;;;;5023343;28;20178;-83
2022/06/26 02:33:04;;;;;;;21.40;12.93;;;16.30;99.90;;;;;;5036806;28;20184;-84
2022/06/26 02:35:31;;;;;;;19.97;12.63;;;16.30;99.90;;;;;;5037747;28;20161;-84
2022/06/26 02:37:57;;;;;;;22.93;14.00;;;16.20;99.90;;;;;;5022252;28;20608;-85
2022/06/26 02:40:30;;;;;;;19.83;13.33;;;16.20;99.90;;;;;;5036462;28;20688;-84
2022/06/26 02:42:56;;;;;;;22.30;13.40;;;16.20;99.90;;;;;;5034899;28;20221;-83
2022/06/26 02:45:23;;;;;;;20.93;13.00;;;16.20;99.90;;;;;;5042507;28;20209;-81
2022/06/26 02:47:49;;;;;;;20.73;13.27;;;16.20;99.90;;;;;;5027982;28;20197;-83
2022/06/26 02:50:15;;;;;;;23.23;12.30;;;16.10;99.90;;;;;;5021355;28;20181;-83
2022/06/26 02:53:07;;;;;;;20.43;12.10;;;16.00;99.90;;;;;;5036540;28;20166;-86
2022/06/26 02:55:33;;;;;;;16.63;11.43;;;16.00;99.90;;;;;;5018284;28;20174;-86
2022/06/26 02:57:59;;;;;;;16.33;10.77;;;16.00;99.90;;;;;;5018155;28;20181;-84
2022/06/26 03:00:25;;;;;;;15.13;10.17;;;16.00;99.90;;;;;;5017947;28;20234;-82
2022/06/26 03:02:51;;;;;;;16.37;11.23;;;15.90;99.90;;;;;;5035399;28;20652;-85
2022/06/26 03:05:17;;;;;;;15.63;9.70;;;15.90;99.90;;;;;;5017336;28;20220;-84
2022/06/26 03:07:43;;;;;;;14.77;9.50;;;16.00;99.90;;;;;;5017509;28;20185;-85
2022/06/26 03:10:10;;;;;;;14.13;9.47;;;16.20;99.90;;;;;;5017347;28;20173;-86
2022/06/26 03:12:46;;;;;;;15.10;10.00;;;16.20;99.90;;;;;;5017431;28;20209;-86
2022/06/26 03:15:12;;;;;;;18.80;10.13;;;16.30;99.90;;;;;;5017456;28;20177;-84
2022/06/26 03:17:39;;;;;;;17.23;9.90;;;16.30;99.90;;;;;;5034610;28;20178;-84
2022/06/26 03:20:07;;;;;;;15.10;8.93;;;16.30;99.90;;;;;;5017046;28;20204;-85
2022/06/26 03:22:33;;;;;;;14.97;8.70;;;16.30;99.90;;;;;;5035198;28;20249;-84
2022/06/26 03:24:59;;;;;;;15.23;8.10;;;16.20;99.90;;;;;;5017117;28;20296;-84
2022/06/26 03:27:24;;;;;;;12.37;8.30;;;16.20;99.90;;;;;;5017561;28;20193;-84
2022/06/26 03:29:50;;;;;;;12.27;8.73;;;16.20;99.90;;;;;;5034848;28;20540;-86
2022/06/26 03:32:16;;;;;;;12.43;8.70;;;16.20;99.90;;;;;;5016389;28;20649;-83
2022/06/26 03:34:41;;;;;;;15.27;8.07;;;16.10;99.90;;;;;;5016809;28;20634;-84
2022/06/26 03:37:07;;;;;;;10.47;6.90;;;16.10;99.90;;;;;;5035068;28;20248;-83
2022/06/26 03:39:33;;;;;;;10.13;7.10;;;16.10;99.90;;;;;;5051403;28;20246;-83
2022/06/26 03:42:00;;;;;;;13.33;7.57;;;16.10;99.90;;;;;;5057657;28;20153;-85
2022/06/26 03:44:27;;;;;;;12.83;7.50;;;16.10;99.90;;;;;;5025670;28;20677;-83
2022/06/26 03:46:53;;;;;;;11.50;7.60;;;16.00;99.90;;;;;;5029520;28;20184;-82
2022/06/26 03:49:18;;;;;;;11.03;7.70;;;16.10;99.90;;;;;;5028992;28;20178;-83
2022/06/26 03:51:50;;;;;;;13.60;7.97;;;16.10;99.90;;;;;;5029974;28;20717;-85
2022/06/26 03:54:30;;;;;;;11.77;7.67;;;16.00;99.90;;;;;;5028640;28;20181;-83
2022/06/26 03:56:58;;;;;;;10.73;7.07;;;16.10;99.90;;;;;;5038809;28;20155;-83
2022/06/26 03:59:30;;;;;;;12.37;7.70;;;16.10;99.90;;;;;;5019345;28;20188;-85
2022/06/26 04:01:55;;;;;;;12.30;7.67;;;16.10;99.90;;;;;;5016630;28;20722;-85
2022/06/26 04:04:21;;;;;;;14.70;8.00;;;16.10;99.90;;;;;;5016360;28;20213;-83
2022/06/26 04:06:47;;;;;;;12.10;7.70;;;16.00;99.90;;;;;;5017030;28;20269;-84
2022/06/26 04:09:13;;;;;;;10.03;7.30;;;16.00;99.90;;;;;;5025545;28;20177;-82
2022/06/26 04:11:38;;;;;;;8.83;7.03;;;16.10;99.90;;;;;;5057541;28;20186;-81
2022/06/26 04:14:04;;;;;;;11.80;8.20;;;16.00;99.90;;;;;;5039902;28;20158;-82
2022/06/26 04:16:30;;;;;;;12.90;7.67;;;16.10;99.90;;;;;;5040897;28;20188;-85
2022/06/26 04:18:55;;;;;;;15.73;7.97;;;16.10;99.90;;;;;;5017590;28;20177;-83
2022/06/26 04:21:25;;;;;;;10.77;7.67;;;16.10;99.90;;;;;;5016752;28;20230;-86
2022/06/26 04:23:51;;;;;;;11.40;6.77;;;16.20;99.90;;;;;;5016321;28;20202;-84
2022/06/26 04:26:20;;;;;;;13.20;7.47;;;16.20;99.90;;;;;;5016367;28;20296;-85
2022/06/26 04:28:46;;;;;;;10.03;6.93;;;16.20;99.90;;;;;;5016166;28;20261;-84
2022/06/26 04:31:12;;;;;;;11.73;7.97;;;16.10;99.90;;;;;;5015801;28;20315;-83
2022/06/26 04:33:37;;;;;;;12.93;7.47;;;16.10;99.90;;;;;;5034813;28;20631;-87
2022/06/26 04:36:03;;;;;;;10.30;7.37;;;16.10;99.90;;;;;;5016136;28;20173;-83
2022/06/26 04:38:29;;;;;;;12.07;7.27;;;16.10;99.90;;;;;;5015925;28;20178;-84
2022/06/26 04:40:54;;;;;;;10.80;6.73;;;16.20;99.90;;;;;;5016413;28;20621;-83
2022/06/26 04:43:20;;;;;;;10.50;6.50;;;16.20;99.90;;;;;;5015523;28;20181;-82
2022/06/26 04:45:46;;;;;;;12.60;7.03;;;16.20;99.90;;;;;;5015314;28;20202;-84
2022/06/26 04:48:12;;;;;;;11.43;6.80;;;16.40;99.90;;;;;;5025438;28;20285;-82
2022/06/26 04:50:37;;;;;;;12.17;6.17;;;16.50;99.90;;;;;;5044857;28;20176;-84
2022/06/26 04:53:03;;;;;;;9.63;6.40;;;16.50;99.90;;;;;;5025185;28;20182;-83
2022/06/26 04:55:29;;;;;;;9.77;7.03;;;16.50;99.90;;;;;;5015833;28;20177;-85
2022/06/26 04:57:55;;;;;;;9.70;6.63;;;16.60;99.90;;;;;;5015613;28;20177;-86
2022/06/26 05:00:20;;;;;;;15.90;7.40;;;16.70;99.90;;;;;;5033157;28;20170;-85
2022/06/26 05:02:46;;;;;;;12.67;6.90;;;16.60;99.90;;;;;;5015575;28;20178;-84
2022/06/26 05:05:12;;;;;;;10.37;6.63;;;16.70;99.90;;;;;;5015505;28;20221;-85
2022/06/26 05:07:38;;;;;;;9.47;6.50;;;16.70;99.90;;;;;;5015859;28;20196;-86
2022/06/26 05:10:04;;;;;;;10.13;6.93;;;16.70;99.90;;;;;;5033152;28;20189;-85
2022/06/26 05:12:30;;;;;;;11.00;6.73;;;16.70;99.90;;;;;;5015826;28;20177;-85
2022/06/26 05:14:55;;;;;;;9.47;6.57;;;16.70;99.90;;;;;;5019063;28;20186;-84
2022/06/26 05:17:21;;;;;;;12.10;7.53;;;16.70;99.90;;;;;;5019173;28;20231;-83
2022/06/26 05:19:47;;;;;;;10.20;6.20;;;16.70;99.90;;;;;;5037393;28;20173;-82
2022/06/26 05:22:12;;;;;;;13.33;7.40;;;16.70;99.90;;;;;;5030735;28;20180;-83
2022/06/26 05:24:38;;;;;;;11.17;7.03;;;16.70;99.90;;;;;;5030565;28;20219;-84
2022/06/26 05:27:04;;;;;;;10.23;6.90;;;16.80;99.90;;;;;;5024238;28;20197;-84
2022/06/26 05:29:30;;;;;;;9.80;6.80;;;16.90;99.90;;;;;;5020326;28;20181;-85
2022/06/26 05:31:56;;;;;;;10.10;7.13;;;17.00;99.70;;;;;;5019653;28;20186;-82
2022/06/26 05:34:22;;;;;;;12.10;6.90;;;17.00;99.30;;;;;;5037671;28;20174;-83
2022/06/26 05:36:48;;;;;;;12.37;7.13;;;17.00;98.70;;;;;;5036364;28;20162;-85
2022/06/26 05:39:14;;;;;;;10.77;6.53;;;17.10;98.20;;;;;;5043952;28;20230;-83
2022/06/26 05:41:40;;;;;;;12.17;7.30;;;17.30;96.90;;;;;;5038614;28;20204;-83
2022/06/26 05:44:05;;;;;;;10.60;6.47;;;17.30;96.40;;;;;;5032374;28;20688;-84
2022/06/26 05:46:31;;;;;;;13.10;7.03;;;17.40;95.90;;;;;;5019647;28;20185;-82
2022/06/26 05:48:57;;;;;;;9.87;6.50;;;17.40;95.50;;;;;;5020488;28;20637;-84
2022/06/26 05:51:23;;;;;;;11.90;7.10;;;17.40;95.80;;;;;;5019982;28;20177;-85
2022/06/26 05:53:49;;;;;;;10.60;6.57;;;17.40;95.60;;;;;;5022106;28;20662;-84
2022/06/26 05:56:15;;;;;;;14.33;7.00;;;17.30;95.20;;;;;;5039655;28;20184;-83
2022/06/26 05:58:40;;;;;;;10.40;7.23;;;17.30;96.00;;;;;;5043473;28;20172;-83
2022/06/26 06:01:06;;;;;;;10.63;7.17;;;17.40;96.10;;;;;;5060809;28;20165;-83
2022/06/26 06:03:32;;;;;;;11.97;7.27;;;17.40;95.40;;;;;;5058652;28;20174;-83
2022/06/26 06:05:59;;;;;;;11.77;6.87;;;17.40;95.90;;;;;;5037530;28;20175;-85
2022/06/26 06:08:27;;;;;;;10.30;6.00;;;17.40;96.00;;;;;;5037867;28;20209;-82
2022/06/26 06:10:56;;;;;;;14.13;7.10;;;17.50;95.70;;;;;;5055593;28;20232;-83
2022/06/26 06:13:22;;;;;;;11.30;6.20;;;17.50;95.80;;;;;;5033303;28;20173;-82
2022/06/26 06:15:47;;;;;;;8.50;5.73;;;17.60;95.00;;;;;;5035081;28;20173;-85
2022/06/26 06:18:13;;;;;;;10.90;5.83;;;17.50;94.70;;;;;;5030401;28;20181;-84
2022/06/26 06:20:39;;;;;;;9.47;6.03;;;17.60;94.00;;;;;;5030920;28;20216;-85
2022/06/26 06:23:06;;;;;;;9.47;6.00;;;17.50;94.10;;;;;;5025948;28;20169;-85
2022/06/26 06:25:33;;;;;;;11.20;6.30;;;17.50;94.30;;;;;;5022778;28;20209;-83
2022/06/26 06:27:59;;;;;;;9.27;6.00;;;17.50;94.70;;;;;;5021582;28;20208;-83
2022/06/26 06:30:25;;;;;;;9.10;5.80;;;17.60;94.10;;;;;;5021545;28;20182;-85
2022/06/26 06:32:50;;;;;;;7.90;5.03;;;17.70;93.40;;;;;;5021250;28;20198;-85
2022/06/26 06:35:16;;;;;;;8.03;5.10;;;17.80;90.90;;;;;;5022216;28;20717;-82
2022/06/26 06:37:44;;;;;;;10.07;5.43;;;17.70;90.20;;;;;;5021885;28;20666;-82
2022/06/26 06:40:11;;;;;;;10.27;5.30;;;17.50;91.40;;;;;;5024213;28;20174;-85
2022/06/26 06:42:37;;;;;;;7.17;5.40;;;17.40;93.60;;;;;;5034001;28;20157;-83
2022/06/26 06:45:04;;;;;;;8.47;5.00;;;17.40;94.00;;;;;;5039684;28;20693;-83
2022/06/26 06:47:30;;;;;;;12.43;5.83;;;17.50;94.20;;;;;;5056641;28;20170;-82
2022/06/26 06:49:55;;;;;;;9.67;5.53;;;17.60;93.60;;;;;;5039222;28;20203;-84
2022/06/26 06:52:21;;;;;;;8.43;5.40;;;17.60;93.90;;;;;;5035845;28;20181;-83
2022/06/26 06:54:47;;;;;;;7.97;5.00;;;17.60;94.10;;;;;;5054441;28;20189;-82
2022/06/26 06:57:13;;;;;;;9.27;5.50;;;17.60;93.30;;;;;;5036962;28;20274;-82
2022/06/26 06:59:42;;;;;;;9.10;4.80;;;17.60;93.40;;;;;;5055052;28;20202;-81
2022/06/26 07:02:08;;;;;;;10.97;5.60;;;17.50;93.00;;;;;;5035177;28;20540;-84
2022/06/26 07:04:34;;;;;;;10.73;5.57;;;17.40;94.30;;;;;;5029672;28;20296;-83
2022/06/26 07:07:06;;;;;;;9.40;5.80;;;17.50;92.10;;;;;;5033235;28;20197;-86
2022/06/26 07:09:32;;;;;;;7.90;4.80;;;17.60;91.80;;;;;;5048649;28;20223;-83
2022/06/26 07:12:01;;;;;;;8.13;5.60;;;17.60;90.40;;;;;;5021632;28;20173;-84
2022/06/26 07:14:33;;;;;;;10.73;5.93;;;17.70;90.30;;;;;;5019527;28;20268;-84
2022/06/26 07:17:05;;;;;;;10.03;6.43;;;17.80;91.20;;;;;;5019113;28;20643;-85
2022/06/26 07:19:33;;;;;;;7.90;5.87;;;17.90;91.80;;;;;;5020870;28;20177;-83
2022/06/26 07:22:02;;;;;;;10.27;6.03;;;17.90;91.20;;;;;;5018108;28;20639;-85
2022/06/26 07:24:27;;;;;;;7.87;6.03;;;17.80;91.00;;;;;;5018324;28;20621;-83
2022/06/26 07:26:55;;;;;;;10.67;6.43;;;17.90;90.90;;;;;;5018449;28;20195;-83
2022/06/26 07:29:21;;;;;;;10.93;6.73;;;17.90;90.50;;;;;;5023134;28;20256;-84
2022/06/26 07:31:46;;;;;;;12.87;7.00;;;18.00;90.40;;;;;;5030783;28;20162;-84
2022/06/26 07:34:12;;;;;;;12.80;6.83;;;18.00;90.90;;;;;;5040102;28;20162;-82
2022/06/26 07:36:41;;;;;;;11.70;6.90;;;18.10;89.60;;;;;;5037760;28;20165;-84
2022/06/26 07:39:09;;;;;;;11.00;6.17;;;18.20;88.10;;;;;;5040886;28;20165;-84
2022/06/26 07:41:42;;;;;;;10.07;6.07;;;18.40;86.50;;;;;;5027296;28;20206;-83
2022/06/26 07:44:12;;;;;;;12.53;7.13;;;18.40;84.80;;;;;;5024250;28;20218;-84
2022/06/26 07:46:41;;;;;;;9.93;6.83;;;18.30;85.60;;;;;;5003011;28;20236;-85
2022/06/26 07:49:08;;;;;;;10.70;6.27;;;18.20;85.40;;;;;;5036129;28;20170;-84
2022/06/26 07:51:36;;;;;;;9.40;6.00;;;18.40;82.50;;;;;;5037657;28;20263;-86
2022/06/26 07:54:02;;;;;;;10.60;6.00;;;18.40;79.70;;;;;;5008933;28;20228;-84
2022/06/26 07:56:28;;;;;;;11.53;7.00;;;18.50;79.60;;;;;;5023786;28;20185;-83
2022/06/26 07:58:54;;;;;;;10.33;7.17;;;18.60;75.70;;;;;;5022765;28;20174;-83
2022/06/26 08:01:22;;;;;;;14.27;7.40;;;18.60;76.00;;;;;;5040196;28;20592;-86
2022/06/26 08:03:48;;;;;;;10.03;6.80;;;18.50;74.80;;;;;;5024902;28;20297;-85
2022/06/26 08:06:16;;;;;;;11.10;8.20;;;18.60;72.50;;;;;;5021894;28;20551;-85
2022/06/26 08:08:42;;;;;;;12.63;8.17;;;18.70;72.20;;;;;;5021650;28;20190;-85
2022/06/26 08:11:07;;;;;;;13.03;8.60;;;18.70;70.50;;;;;;5018104;28;20206;-84
2022/06/26 08:13:33;;;;;;;12.07;8.97;;;18.70;67.10;;;;;;5017465;28;20178;-84
2022/06/26 08:15:59;;;;;;;13.33;9.23;;;18.70;68.60;;;;;;5020386;28;20173;-86
2022/06/26 08:18:25;;;;;;;15.90;8.67;;;18.70;69.00;;;;;;5020603;28;20186;-83
2022/06/26 08:20:51;;;;;;;14.97;9.17;;;18.60;70.70;;;;;;5003714;28;20186;-83
2022/06/26 08:23:17;;;;;;;13.80;10.03;;;18.70;70.60;;;;;;5018489;28;20209;-83
2022/06/26 08:25:44;;;;;;;11.77;8.97;;;18.90;67.80;;;;;;5019653;28;20666;-85
2022/06/26 08:28:10;;;;;;;13.20;9.13;;;18.90;67.10;;;;;;5018417;28;20210;-85
2022/06/26 08:30:35;;;;;;;13.23;10.07;;;18.90;66.50;;;;;;5027301;28;20245;-83
2022/06/26 08:33:01;;;;;;;17.50;9.40;;;18.90;66.50;;;;;;5029640;28;20711;-83
2022/06/26 08:35:28;;;;;;;15.80;10.27;;;19.00;68.40;;;;;;5027182;28;20181;-84
2022/06/26 08:37:56;;;;;;;13.13;9.33;;;19.10;63.60;;;;;;5017057;28;20250;-83
2022/06/26 08:40:23;;;;;;;12.47;9.00;;;19.10;58.80;;;;;;5019514;28;20218;-85
2022/06/26 08:42:52;;;;;;;15.07;9.30;;;19.00;60.00;;;;;;5017445;28;20185;-86
2022/06/26 08:45:22;;;;;;;12.83;9.00;;;19.00;58.80;;;;;;5017807;28;20202;-85
2022/06/26 08:47:52;;;;;;;13.60;8.30;;;19.10;57.00;;;;;;5020260;28;20256;-85
2022/06/26 08:50:22;;;;;;;16.30;8.63;;;19.10;55.80;;;;;;5025897;28;20175;-86
2022/06/26 08:52:52;;;;;;;13.77;9.77;;;19.20;54.80;;;;;;5035891;28;20181;-84
2022/06/26 08:55:20;;;;;;;13.70;10.63;;;19.20;53.40;;;;;;5060414;28;20235;-84
2022/06/26 08:57:47;;;;;;;17.37;10.67;;;19.20;54.90;;;;;;5035116;28;20178;-85
2022/06/26 09:00:14;;;;;;;15.53;10.03;;;19.40;54.20;;;;;;5029432;28;20239;-84
2022/06/26 09:02:44;;;;;;;12.87;10.17;;;19.30;48.20;;;;;;5019346;28;20203;-85
2022/06/26 09:05:10;;;;;;;15.00;11.13;;;19.30;47.60;;;;;;5038337;28;20201;-85
2022/06/26 09:07:52;;;;;;;14.27;11.70;;;19.30;45.90;;;;;;5020337;28;20187;-84
2022/06/26 09:10:20;;;;;;;16.77;12.63;;;19.30;47.80;;;;;;5021110;28;20231;-84
2022/06/26 09:12:54;;;;;;;17.07;12.57;;;19.50;47.10;;;;;;5021817;28;20261;-84
2022/06/26 09:15:21;;;;;;;18.10;13.53;;;19.60;42.50;;;;;;5053712;28;20165;-84
2022/06/26 09:18:01;;;;;;;16.63;12.40;;;19.70;43.10;;;;;;5061364;28;20195;-82
2022/06/26 09:20:29;;;;;;;17.57;12.67;;;19.80;43.70;;;;;;5039982;28;20178;-85
2022/06/26 09:22:58;;;;;;;13.93;11.10;;;20.00;38.00;;;;;;5033988;28;20177;-82
2022/06/26 09:25:53;;;;;;;14.30;10.77;;;20.10;34.20;;;;;;5038194;28;20211;-83
2022/06/26 09:28:25;;;;;;;14.50;11.43;;;20.30;33.20;;;;;;5023804;28;20191;-86
2022/06/26 09:30:58;;;;;;;11.40;9.73;;;20.40;29.40;;;;;;5041268;28;20178;-83
2022/06/26 09:33:28;;;;;;;12.37;10.17;;;20.50;21.60;;;;;;5020777;28;20171;-83
2022/06/26 09:35:55;;;;;;;13.13;9.43;;;20.40;22.10;;;;;;5025152;28;20198;-86
2022/06/26 09:38:30;;;;;;;12.33;9.90;;;20.30;19.80;;;;;;5039120;28;20182;-82
2022/06/26 09:41:00;;;;;;;13.67;10.27;;;20.30;19.10;;;;;;5053192;28;20226;-83
2022/06/26 09:43:41;;;;;;;11.77;9.50;;;20.20;23.90;;;;;;5025071;28;20210;-82
2022/06/26 09:46:12;;;;;;;10.73;7.83;;;20.20;20.70;;;;;;5060121;28;20148;-83
2022/06/26 09:48:38;;;;;;;12.43;6.67;;;20.20;15.80;;;;;;5038211;28;20179;-84
2022/06/26 09:51:13;;;;;;;7.53;5.43;;;20.30;17.10;;;;;;5040584;28;20183;-82
2022/06/26 09:53:41;;;;;;;6.73;4.50;;;20.40;13.60;;;;;;5057464;28;20165;-84
2022/06/26 09:56:17;;;;;;;7.97;3.77;;;20.30;12.30;;;;;;5042032;28;20487;-85
2022/06/26 09:58:43;;;;;;;8.23;3.63;;;20.30;8.50;;;;;;5039790;28;20160;-85
2022/06/26 10:07:08;;;;;;;7.70;3.10;;;20.40;7.90;;;;;;5051380;28;20180;-83
2022/06/26 10:09:35;;;;;;;7.53;2.60;;;20.60;8.70;;;;;;5037635;28;20185;-84
2022/06/26 10:12:05;;;;;;;5.33;2.63;;;20.80;1.00;;;;;;5056916;28;20159;-84
2022/06/26 10:14:50;;;;;;;5.53;2.50;;;20.80;1.00;;;;;;5037522;28;20180;-85
2022/06/26 10:18:01;;;;;;;8.10;2.90;;;21.00;1.00;;;;;;5036850;28;20435;-84
2022/06/26 10:20:32;;;;;;;5.50;2.70;;;21.20;1.00;;;;;;5036133;28;20181;-84
2022/06/26 10:23:54;;;;;;;4.87;2.70;;;21.20;1.00;;;;;;5032470;28;20585;-84
2022/06/26 10:26:44;;;;;;;5.53;2.33;;;21.20;1.00;;;;;;5035329;28;20196;-84
2022/06/26 10:29:11;;;;;;;6.47;2.80;;;21.50;1.00;;;;;;5051439;28;20159;-84
2022/06/26 10:31:49;;;;;;;5.00;2.93;;;21.50;1.00;;;;;;5029910;28;20277;-86
2022/06/26 10:34:23;;;;;;;5.20;2.50;;;21.70;1.00;;;;;;5046744;28;20161;-85
2022/06/26 10:37:10;;;;;;;4.93;2.13;;;22.00;1.00;;;;;;5028881;28;20264;-83
2022/06/26 10:39:38;;;;;;;4.73;2.40;;;22.30;1.00;;;;;;5026849;28;20178;-83
2022/06/26 10:45:04;;;;;;;5.73;2.53;;;22.30;1.00;;;;;;5048649;28;20220;-85
2022/06/26 10:47:48;;;;;;;5.93;2.63;;;21.90;1.00;;;;;;5027869;28;20174;-85
2022/06/26 10:50:29;;;;;;;4.57;2.10;;;21.90;1.00;;;;;;5024557;28;20184;-86
2022/06/26 10:53:26;;;;;;;7.77;2.10;;;21.90;1.00;;;;;;5047266;28;20162;-86
2022/06/26 10:55:57;;;;;;;5.33;1.90;;;21.80;1.00;;;;;;5027602;28;20177;-85
2022/06/26 10:58:25;;;;;;;8.43;2.50;;;21.60;1.00;;;;;;5022835;28;20190;-84
2022/06/26 11:00:54;;;;;;;6.30;2.23;;;21.70;1.00;;;;;;5021931;28;20181;-83
2022/06/26 11:03:23;;;;;;;5.97;1.73;;;21.90;1.00;;;;;;5040578;28;20180;-86
2022/06/26 11:06:10;;;;;;;5.57;2.13;;;22.00;1.00;;;;;;5039908;28;20199;-85
2022/06/26 11:08:45;;;;;;;8.27;2.50;;;22.40;1.00;;;;;;5025082;28;20553;-86
2022/06/26 11:11:22;;;;;;;3.83;2.07;;;22.30;1.00;;;;;;5025113;28;20175;-85
2022/06/26 11:13:53;;;;;;;4.70;1.77;;;22.30;1.00;;;;;;5032208;28;20220;-85
2022/06/26 11:16:44;;;;;;;5.53;1.83;;;22.50;1.00;;;;;;5057963;28;20212;-86
2022/06/26 11:22:32;;;;;;;5.13;1.93;;;22.50;1.00;;;;;;5059651;28;20181;-85
2022/06/26 11:25:06;;;;;;;6.70;2.03;;;22.60;1.00;;;;;;5058246;28;20210;-83
2022/06/26 11:27:34;;;;;;;6.33;2.03;;;22.60;1.00;;;;;;5040650;28;20180;-84
2022/06/26 11:30:01;;;;;;;6.50;2.07;;;22.70;1.00;;;;;;5058740;28;20173;-81
2022/06/26 11:32:29;;;;;;;4.17;2.20;;;22.70;1.00;;;;;;5041723;28;20172;-83
2022/06/26 11:35:36;;;;;;;5.43;1.97;;;22.70;1.00;;;;;;5034499;28;20203;-85
2022/06/26 11:42:15;;;;;;;5.63;2.00;;;22.90;1.00;;;;;;5047405;28;20183;-86
2022/06/26 11:44:55;;;;;;;6.67;2.10;;;22.90;1.00;;;;;;5055772;28;20206;-83
2022/06/26 11:47:22;;;;;;;7.30;2.20;;;23.00;1.00;;;;;;5037592;28;20187;-85
2022/06/26 11:49:50;;;;;;;4.10;1.70;;;22.90;1.00;;;;;;5025232;28;20259;-86
2022/06/26 11:52:31;;;;;;;3.67;1.83;;;22.80;1.00;;;;;;5022620;28;20171;-86
2022/06/26 11:55:01;;;;;;;3.73;1.90;;;22.80;1.00;;;;;;5026922;28;20172;-86
2022/06/26 11:57:32;;;;;;;5.47;2.10;;;23.00;1.00;;;;;;5044435;28;20318;-87
2022/06/26 12:00:03;;;;;;;5.67;1.83;;;22.90;1.00;;;;;;5012106;28;20177;-86
2022/06/26 12:02:30;;;;;;;7.93;2.73;;;22.80;1.00;;;;;;5028049;28;20160;-86
2022/06/26 12:05:00;;;;;;;6.53;2.20;;;22.90;1.00;;;;;;5023824;28;20205;-87
2022/06/26 12:07:40;;;;;;;6.67;1.77;;;23.20;1.00;;;;;;5040293;28;20184;-85
2022/06/26 12:10:07;;;;;;;5.40;1.97;;;23.30;1.00;;;;;;5015426;28;20180;-85
2022/06/26 12:13:00;;;;;;;4.00;1.90;;;23.20;1.00;;;;;;5024090;28;20171;-85
2022/06/26 12:15:30;;;;;;;4.57;2.00;;;23.10;1.00;;;;;;5023811;28;20195;-84
2022/06/26 12:18:03;;;;;;;6.90;2.30;;;23.00;1.00;;;;;;5029833;28;20624;-86
2022/06/26 12:20:39;;;;;;;8.17;4.20;;;22.90;1.00;;;;;;5031035;28;20179;-86
2022/06/26 12:23:07;;;;;;;4.33;2.40;;;23.10;1.00;;;;;;5029148;28;20179;-87
2022/06/26 12:25:38;;;;;;;6.37;2.40;;;23.50;1.00;;;;;;5139647;23;20299;-87
2022/06/26 12:28:04;;;;;;;7.37;2.67;;;23.80;1.00;;;;;;5075857;22;20228;-83
2022/06/26 12:30:45;;;;;;;6.63;3.97;;;24.10;1.00;;;;;;5038174;28;20184;-85
2022/06/26 12:33:18;;;;;;;5.87;3.07;;;24.00;1.00;;;;;;5053356;28;20249;-83
2022/06/26 12:35:45;;;;;;;5.30;2.83;;;24.10;1.00;;;;;;5095096;22;20238;-84
2022/06/26 12:38:12;;;;;;;5.07;2.13;;;24.00;1.00;;;;;;5035969;28;20618;-85
2022/06/26 12:40:45;;;;;;;4.77;1.93;;;23.90;1.00;;;;;;5044441;28;20185;-85
2022/06/26 12:43:18;;;;;;;6.07;2.10;;;24.00;1.00;;;;;;5042179;28;20165;-86
2022/06/26 12:46:00;;;;;;;7.50;2.63;;;24.10;1.00;;;;;;5026723;28;20209;-87
2022/06/26 12:48:34;;;;;;;5.40;2.00;;;24.20;1.00;;;;;;5044087;28;20194;-85
2022/06/26 12:51:01;;;;;;;6.53;1.90;;;23.80;1.00;;;;;;5044372;28;20166;-86
2022/06/26 12:53:27;;;;;;;5.97;2.20;;;23.60;1.00;;;;;;5026300;28;20209;-86
2022/06/26 12:55:53;;;;;;;5.00;2.00;;;23.60;1.00;;;;;;5026669;28;20180;-86
2022/06/26 12:58:19;;;;;;;11.53;2.70;;;23.60;1.00;;;;;;5029640;28;20167;-83
2022/06/26 13:00:46;;;;;;;5.40;2.80;;;23.30;1.00;;;;;;5052411;28;20177;-85
2022/06/26 13:03:14;;;;;;;6.80;2.70;;;23.20;1.00;;;;;;5039493;28;20158;-84
2022/06/26 13:05:43;;;;;;;6.70;2.50;;;23.30;1.00;;;;;;5034273;28;20861;-84
2022/06/26 13:08:12;;;;;;;5.33;2.80;;;23.50;1.00;;;;;;5026864;28;20161;-86
2022/06/26 13:10:39;;;;;;;4.57;1.90;;;23.70;1.00;;;;;;5025235;28;20193;-85